createdAt,value
2018-12-11T00:00:23.570Z,4.08
2018-12-11T00:02:58.047Z,4.10
2018-12-11T00:05:32.306Z,4.13
2018-12-11T00:08:04.181Z,4.13
2018-12-11T00:10:39.301Z,4.05
2018-12-11T00:13:14.523Z,4.17
2018-12-11T00:15:47.720Z,4.06
2018-12-11T00:18:21.874Z,3.86
2018-12-11T00:20:55.796Z,3.82
2018-12-11T00:23:29.918Z,3.99
2018-12-11T00:26:04.294Z,3.92
2018-12-11T00:39:18.130Z,3.81
2018-12-11T00:41:52.199Z,3.79
2018-12-11T00:47:12.447Z,3.87
2018-12-11T00:49:48.188Z,3.77
2018-12-11T00:52:24.796Z,3.72
2018-12-11T00:55:04.732Z,3.72
2018-12-11T00:57:41.068Z,3.88
2018-12-11T01:00:15.915Z,3.70
2018-12-11T01:02:52.379Z,3.88
2018-12-11T01:05:32.022Z,3.08
2018-12-11T01:08:06.420Z,2.93
2018-12-11T01:10:40.568Z,3.12
2018-12-11T01:13:15.408Z,3.62
2018-12-11T01:15:52.261Z,3.72
2018-12-11T01:18:25.332Z,3.50
2018-12-11T01:21:00.707Z,3.37
2018-12-11T01:23:36.512Z,3.27
2018-12-11T01:26:08.350Z,3.25
2018-12-11T01:28:43.680Z,3.30
2018-12-11T01:42:33.018Z,3.41
2018-12-11T01:45:08.837Z,3.41
2018-12-11T01:47:44.387Z,3.28
2018-12-11T01:50:19.133Z,3.49
2018-12-11T01:55:39.578Z,3.32
2018-12-11T01:58:14.463Z,3.28
2018-12-11T02:00:46.733Z,3.29
2018-12-11T02:03:21.812Z,3.30
2018-12-11T02:05:58.823Z,3.31
2018-12-11T02:08:34.786Z,3.20
2018-12-11T02:14:00.339Z,2.84
2018-12-11T02:19:21.259Z,3.24
2018-12-11T02:54:37.793Z,2.61
2018-12-11T02:57:13.040Z,2.55
2018-12-11T02:59:44.893Z,2.56
2018-12-11T03:02:18.837Z,2.59
2018-12-11T03:04:52.813Z,2.64
2018-12-11T03:07:24.737Z,2.73
2018-12-11T03:09:58.590Z,2.97
2018-12-11T03:12:36.643Z,2.92
2018-12-11T03:15:18.704Z,3.11
2018-12-11T03:20:52.858Z,2.83
2018-12-11T03:26:11.684Z,2.85
2018-12-11T03:28:46.756Z,2.58
2018-12-11T03:31:18.982Z,2.80
2018-12-11T03:36:44.609Z,2.98
2018-12-11T03:39:16.250Z,3.00
2018-12-11T03:41:50.806Z,3.34
2018-12-11T03:44:25.948Z,3.18
2018-12-11T03:47:01.693Z,3.47
2018-12-11T03:49:37.129Z,3.12
2018-12-11T03:52:13.514Z,3.14
2018-12-11T03:54:48.460Z,3.05
2018-12-11T03:57:27.520Z,2.98
2018-12-11T04:00:06.595Z,2.91
2018-12-11T04:02:44.217Z,2.94
2018-12-11T04:05:19.618Z,2.96
2018-12-11T04:07:54.810Z,2.97
2018-12-11T04:10:30.109Z,2.87
2018-12-11T04:13:05.893Z,2.82
2018-12-11T04:15:43.761Z,3.21
2018-12-11T04:18:23.292Z,3.56
2018-12-11T04:20:57.361Z,3.18
2018-12-11T04:23:31.427Z,3.34
2018-12-11T04:26:06.973Z,3.23
2018-12-11T04:28:41.392Z,3.38
2018-12-11T04:31:15.270Z,3.17
2018-12-11T04:33:51.072Z,3.11
2018-12-11T04:36:27.291Z,3.12
2018-12-11T04:39:07.246Z,3.25
2018-12-11T04:41:57.278Z,3.25
2018-12-11T04:44:44.927Z,3.37
2018-12-11T04:56:03.361Z,4.08
2018-12-11T04:58:37.620Z,3.84
2018-12-11T05:01:11.974Z,4.18
2018-12-11T05:03:40.477Z,4.10
2018-12-11T05:06:10.966Z,4.14
2018-12-11T05:11:36.859Z,4.21
2018-12-11T05:14:05.959Z,3.91
2018-12-11T05:16:36.401Z,3.80
2018-12-11T05:19:04.835Z,3.88
2018-12-11T05:21:33.215Z,3.85
2018-12-11T05:24:02.579Z,3.71
2018-12-11T05:26:32.023Z,3.76
2018-12-11T05:29:04.188Z,3.77
2018-12-11T05:31:36.291Z,3.67
2018-12-11T05:34:04.748Z,3.56
2018-12-11T05:36:34.551Z,3.55
2018-12-11T05:39:03.357Z,3.56
2018-12-11T05:41:31.737Z,3.66
2018-12-11T05:44:00.095Z,3.50
2018-12-11T05:46:28.416Z,3.46
2018-12-11T05:48:56.827Z,3.53
2018-12-11T05:51:31.548Z,3.92
2018-12-11T05:54:05.424Z,3.88
2018-12-11T05:56:35.777Z,3.58
2018-12-11T05:59:04.598Z,3.81
2018-12-11T06:01:33.026Z,3.59
2018-12-11T06:04:01.395Z,3.58
2018-12-11T06:06:29.936Z,3.61
2018-12-11T06:09:07.358Z,3.64
2018-12-11T06:11:40.507Z,3.73
2018-12-11T06:14:19.165Z,3.68
2018-12-11T06:16:47.610Z,3.61
2018-12-11T06:19:17.227Z,3.62
2018-12-11T06:21:45.568Z,3.57
2018-12-11T06:24:13.891Z,3.65
2018-12-11T06:26:42.242Z,3.50
2018-12-11T06:29:10.560Z,3.53
2018-12-11T06:31:40.359Z,3.57
2018-12-11T06:34:16.209Z,3.57
2018-12-11T06:39:47.427Z,3.52
2018-12-11T06:42:24.376Z,3.53
2018-12-11T06:44:53.414Z,3.45
2018-12-11T06:47:22.429Z,3.38
2018-12-11T06:49:50.944Z,3.49
2018-12-11T06:52:26.425Z,3.61
2018-12-11T06:54:54.881Z,3.61
2018-12-11T06:57:23.788Z,3.46
2018-12-11T06:59:52.582Z,3.36
2018-12-11T07:02:21.797Z,3.32
2018-12-11T07:04:50.308Z,3.28
2018-12-11T07:07:19.552Z,3.26
2018-12-11T07:09:47.986Z,3.23
2018-12-11T07:12:16.411Z,3.21
2018-12-11T07:14:48.803Z,3.17
2018-12-11T07:17:17.801Z,3.16
2018-12-11T07:19:46.176Z,3.25
2018-12-11T07:22:14.580Z,3.32
2018-12-11T07:24:49.016Z,3.29
2018-12-11T07:27:18.827Z,3.44
2018-12-11T07:29:49.029Z,3.23
2018-12-11T07:32:31.620Z,3.30
2018-12-11T07:35:04.477Z,3.20
2018-12-11T07:37:35.142Z,3.13
2018-12-11T07:40:04.796Z,3.05
2018-12-11T07:42:35.027Z,2.99
2018-12-11T07:45:07.044Z,2.99
2018-12-11T07:47:41.260Z,2.95
2018-12-11T07:50:10.168Z,2.91
2018-12-11T07:52:39.630Z,2.91
2018-12-11T07:55:15.226Z,2.89
2018-12-11T07:57:49.765Z,2.81
2018-12-11T08:00:18.552Z,2.54
2018-12-11T08:02:48.980Z,2.69
2018-12-11T08:05:20.440Z,2.67
2018-12-11T08:07:56.482Z,2.70
2018-12-11T08:13:24.147Z,2.55
2018-12-11T08:15:55.538Z,2.54
2018-12-11T08:18:32.780Z,2.64
2018-12-11T08:21:03.023Z,2.66
2018-12-11T08:23:45.941Z,2.57
2018-12-11T08:26:26.410Z,2.53
2018-12-11T08:28:56.487Z,2.61
2018-12-11T08:34:37.880Z,2.65
2018-12-11T08:37:13.101Z,2.79
2018-12-11T08:39:57.931Z,2.85
2018-12-11T08:42:39.216Z,2.89
2018-12-11T08:47:09.937Z,3.20
2018-12-11T08:49:40.342Z,3.13
2018-12-11T08:52:10.728Z,3.28
2018-12-11T08:54:49.903Z,3.21
2018-12-11T08:57:22.203Z,3.41
2018-12-11T08:59:51.566Z,3.83
2018-12-11T09:02:20.241Z,4.12
2018-12-11T09:04:51.283Z,4.66
2018-12-11T09:07:22.203Z,4.84
2018-12-11T09:09:52.267Z,5.03
2018-12-11T09:12:25.361Z,5.27
2018-12-11T09:15:01.766Z,5.41
2018-12-11T09:17:30.697Z,5.09
2018-12-11T09:20:01.367Z,5.10
2018-12-11T09:33:21.207Z,6.81
2018-12-11T09:35:59.496Z,7.04
2018-12-11T09:38:35.683Z,7.30
2018-12-11T09:41:11.269Z,7.08
2018-12-11T09:43:45.654Z,7.29
2018-12-11T09:51:58.468Z,7.78
2018-12-11T10:00:27.806Z,6.91
2018-12-11T10:03:08.293Z,7.48
2018-12-11T10:05:56.670Z,7.46
2018-12-11T10:14:28.429Z,7.81
2018-12-11T10:31:32.509Z,8.90
2018-12-11T10:34:09.518Z,8.43
2018-12-11T10:39:42.618Z,8.03
2018-12-11T10:45:23.262Z,8.96
2018-12-11T12:18:47.254Z,7.90
2018-12-11T12:24:14.668Z,8.55
2018-12-11T12:35:35.289Z,8.82
2018-12-11T12:38:16.292Z,8.97
2018-12-11T12:52:50.062Z,7.64
2018-12-11T13:43:33.204Z,8.15
2018-12-11T15:05:12.764Z,7.06
2018-12-11T15:07:57.564Z,7.03
2018-12-11T15:24:47.257Z,6.79
2018-12-11T15:38:47.033Z,6.65
2018-12-11T15:41:34.467Z,6.62
2018-12-11T16:09:41.464Z,6.31
2018-12-11T16:12:32.062Z,6.05
2018-12-11T16:15:11.708Z,6.06
2018-12-11T16:33:21.581Z,6.30
2018-12-11T17:39:21.793Z,6.35
2018-12-11T17:42:39.955Z,6.36
2018-12-11T17:45:30.124Z,6.29
2018-12-11T17:51:01.912Z,6.25
2018-12-11T17:56:31.084Z,6.08
2018-12-11T18:11:03.209Z,6.11
2018-12-11T18:28:06.781Z,5.54
2018-12-11T20:55:42.677Z,3.40
2018-12-11T21:18:15.297Z,3.16
2018-12-11T21:20:52.754Z,3.09
2018-12-11T21:23:31.325Z,3.01
2018-12-11T21:26:07.833Z,2.84
2018-12-11T21:28:42.221Z,2.78
2018-12-11T21:31:16.608Z,2.81
2018-12-11T21:33:48.575Z,2.82
2018-12-11T21:36:23.656Z,2.76
2018-12-11T21:38:57.623Z,1.90
2018-12-11T21:41:33.227Z,2.61
2018-12-11T21:44:08.282Z,2.61
2018-12-11T21:46:44.640Z,2.64
2018-12-11T21:49:19.243Z,2.62
2018-12-11T21:51:53.907Z,2.60
2018-12-11T21:54:28.659Z,2.55
2018-12-11T21:57:02.024Z,2.57
2018-12-11T21:59:34.471Z,2.56
2018-12-11T22:02:10.627Z,2.49
2018-12-11T22:04:46.708Z,2.47
2018-12-11T22:07:23.189Z,2.45
2018-12-11T22:09:57.775Z,1.67
2018-12-11T22:12:33.695Z,1.61
2018-12-11T22:15:08.465Z,2.29
2018-12-11T22:17:44.449Z,2.30
2018-12-11T22:20:18.780Z,2.28
2018-12-11T22:22:53.021Z,2.21
2018-12-11T22:25:27.581Z,2.15
2018-12-11T22:28:01.870Z,2.16
2018-12-11T22:30:38.097Z,2.12
2018-12-11T22:33:12.124Z,2.00
2018-12-11T22:35:46.452Z,2.00
2018-12-11T22:38:21.265Z,1.95
2018-12-11T22:41:50.070Z,2.12
2018-12-11T22:44:25.238Z,1.96
2018-12-11T22:47:00.192Z,1.90
2018-12-11T22:49:37.798Z,1.84
2018-12-11T22:52:12.697Z,1.86
2018-12-11T22:54:46.825Z,1.89
2018-12-11T22:57:21.255Z,1.77
2018-12-11T22:59:56.053Z,1.67
2018-12-11T23:02:27.801Z,1.68
2018-12-11T23:04:58.335Z,1.64
2018-12-11T23:07:32.138Z,1.64
2018-12-11T23:10:07.270Z,1.72
2018-12-11T23:12:39.021Z,1.49
2018-12-11T23:15:09.412Z,1.48
2018-12-11T23:17:43.826Z,1.57
2018-12-11T23:20:21.963Z,1.56
2018-12-11T23:22:56.347Z,1.36
2018-12-11T23:28:29.288Z,1.36
2018-12-11T23:31:09.242Z,1.37
2018-12-11T23:33:43.838Z,1.42
2018-12-11T23:36:19.807Z,1.41
2018-12-11T23:38:58.627Z,1.21
2018-12-11T23:41:32.954Z,1.34
2018-12-11T23:44:09.384Z,1.38
2018-12-11T23:46:44.093Z,1.39
2018-12-11T23:49:21.379Z,1.40
2018-12-11T23:51:53.724Z,1.40
2018-12-11T23:54:28.943Z,1.39
2018-12-11T23:57:03.953Z,1.34
2018-12-11T23:59:43.174Z,1.32
